Kezdőlap
METAR-TAF:

METAR-TAF

Repülőterek :

Omaha, Nebraska, Amerikai Egyesült Államok

földrajzi szélesség: 41-11-45N, földrajzi hosszúság: 096-06-44W, magasság: 320 m

Jelenlegi meteorológiai megfigyelések

A jelentés 30 perccel ezelõtt készült, 07:15 UTC
Északnyugati szél 6 kt
Hőmérséklet 17°C
Páratartalom 94%
Légköri nyomás 1012 hPa
Látótávolság: 8.0 km
Borult 700 lábon
Párásság

METAR: KMLE 260715Z AUTO 31006KT 5SM BR OVC007 17/16 A2987 RMK AO2 T01710155

Idő: 02:45 (07:45 UTC)


TAF: hiányzik

Meteorológiai megfigyelések és előrejelzések több, mint 4000 repülőtéren (METAR és TAF jelentéseket).

A térképen piros és sárga pontok jelzik az elérhető meteorológiai állomásokat.

Mozgassa az egeret a pont fölött, hogy megjelenjen az állomás neve.

Azután kattintson az időjárási megfigyelések és előrejelzések megtekintéséhez.

A térkép megváltoztatása: kattintson a fekete keresztel jelölt zöld gombra ráközelítéshez, a vonallal jelölt zöld gombra távolításhoz, vagy a zöld nyilakra a szomszédos térképek eléréséhez.


METAR-TAF: